Flight Track Log - Related Links

Times and Time Zones

All times are in EDT time to prevent confusion due to time zone crossing. See the QXE2086 flight status page for this flight to view local times or setup timezone preferences in your user account.

Time Position Orientation Groundspeed Altitude Reporting Facility
EDT Latitude Longitude Course Direction KTS MPH feet Rate Location/Type
Mon 10:44:00 PM 47.2514 -121.6820 109° East  Level Estimated
Mon 10:45:00 PM 47.2180 -121.5774 109° East  Level Estimated
Mon 10:46:00 PM 47.1986 -121.4656 104° East  Level FlightAware Approximate
Mon 10:47:00 PM 47.1791 -121.3538 104° East  Level FlightAware Approximate
Mon 10:48:00 PM 47.1594 -121.2421 104° East  Level FlightAware Approximate
Mon 10:49:00 PM 47.1242 -121.1390 109° East  Level Estimated
Mon 10:50:00 PM 47.1038 -121.0277 105° East  Level FlightAware Approximate
Mon 10:51:00 PM 47.0833 -120.9165 105° East  Level FlightAware Approximate
Mon 10:52:00 PM 47.0507 -120.8256 118° Southeast  Level Estimated
Mon 10:53:00 PM 47.0180 -120.7348 118° Southeast  Level Estimated
Mon 10:54:00 PM 46.9852 -120.6441 118° Southeast  Level Estimated
Mon 10:55:00 PM 46.9524 -120.5536 118° Southeast  Level Estimated
Mon 10:56:00 PM 46.9195 -120.4631 118° Southeast  Level Estimated
Mon 10:57:00 PM 46.8865 -120.3727 118° Southeast  Level Estimated
Mon 10:58:00 PM 46.8535 -120.2825 118° Southeast  Level Estimated
Mon 10:59:00 PM 46.8204 -120.1923 118° Southeast  Level Estimated
Mon 11:00:00 PM 46.7872 -120.1023 118° Southeast  Level Estimated
Mon 11:01:00 PM 46.7540 -120.0124 118° Southeast  Level Estimated
Mon 11:02:00 PM 46.7206 -119.9226 118° Southeast  Level Estimated
Mon 11:03:00 PM 46.6872 -119.8329 118° Southeast  Level Estimated
Mon 11:04:00 PM 46.6538 -119.7433 119° Southeast  Level Estimated
Mon 11:05:00 PM 46.6203 -119.6538 119° Southeast  Level Estimated
Mon 11:06:00 PM 46.5867 -119.5645 119° Southeast  Level Estimated
Mon 11:07:00 PM 46.5530 -119.4752 119° Southeast  Level Estimated
Mon 11:08:00 PM 46.5192 -119.3861 119° Southeast  Level Estimated
Mon 11:09:00 PM 46.4854 -119.2971 119° Southeast  Level Estimated
Mon 11:10:00 PM 46.4516 -119.2082 119° Southeast  Level Estimated
Mon 11:11:00 PM 46.4176 -119.1193 119° Southeast  Level Estimated
Mon 11:12:00 PM 46.3836 -119.0306 119° Southeast  Level Estimated
Mon 11:13:00 PM 46.3461 -118.9332 119° Southeast  Level Estimated
Mon 11:14:00 PM 46.3085 -118.8359 119° Southeast  Level Estimated
Mon 11:15:00 PM 46.2709 -118.7387 119° Southeast  Level Estimated
Mon 11:16:00 PM 46.2331 -118.6417 119° Southeast  Level Estimated
Mon 11:17:00 PM 46.1953 -118.5448 119° Southeast  Level Estimated
Mon 11:18:00 PM 46.1574 -118.4480 119° Southeast  Level Estimated
Mon 11:19:00 PM 46.1194 -118.3514 120° Southeast  Level Estimated
Mon 11:20:00 PM 46.0948 -118.2890 120° Southeast  Level Estimated
Mon 11:21:00 PM 46.0948 -118.2890 180° South  Level Estimated
Mon 11:22:00 PM 46.0948 -118.2890 180° South  Level Estimated

Login

Don't have an account? Register now (free) for customized features, flight alerts, and more!